Time;durP1;ratioP1;P1;durP2;ratioP2;P2;SDS_P1;SDS_P2;PMS_P1;PMS_P2;Temp;Humidity;BMP_temperature;BMP_pressure;BME280_temperature;BME280_humidity;BME280_pressure;Samples;Min_cycle;Max_cycle;Signal;HPM_P1;HPM_P2
2022/01/16 00:04:28;;;;;;;38.30;20.10;;;;;;;1.05;72.20;101455.61;110048;1261;21968;-79
2022/01/16 00:07:01;;;;;;;44.00;21.30;;;;;;;1.06;72.30;101457.77;110170;1261;21935;-79
2022/01/16 00:09:35;;;;;;;39.40;21.60;;;;;;;1.10;72.29;101442.70;110172;1260;23579;-80
2022/01/16 00:12:10;;;;;;;46.10;22.80;;;;;;;1.11;72.08;101431.36;109886;1259;23057;-79
2022/01/16 00:14:42;;;;;;;46.60;24.00;;;;;;;1.09;71.93;101425.52;110560;1259;22034;-79
2022/01/16 00:17:12;;;;;;;54.10;28.00;;;;;;;1.10;72.02;101421.34;110324;1259;23593;-78
2022/01/16 00:19:41;;;;;;;47.90;23.90;;;;;;;1.12;71.97;101428.53;109993;1262;22774;-79
2022/01/16 00:22:14;;;;;;;49.80;25.50;;;;;;;1.10;71.76;101427.23;109678;1262;22415;-79
2022/01/16 00:24:43;;;;;;;48.50;26.30;;;;;;;1.07;71.74;101425.81;109742;1264;21979;-79
2022/01/16 00:27:13;;;;;;;46.60;26.80;;;;;;;1.05;71.74;101424.89;109687;1265;22005;-79
2022/01/16 00:29:46;;;;;;;51.20;28.30;;;;;;;1.05;71.86;101420.90;109893;1258;21990;-79
2022/01/16 00:32:15;;;;;;;46.90;26.60;;;;;;;1.06;71.90;101408.92;110313;1259;21981;-79
2022/01/16 00:34:50;;;;;;;54.60;27.80;;;;;;;1.04;71.80;101409.52;110335;1257;23069;-79
2022/01/16 00:37:19;;;;;;;54.30;32.20;;;;;;;1.01;71.71;101402.72;110420;1253;21979;-79
2022/01/16 00:39:48;;;;;;;56.60;32.00;;;;;;;1.00;71.72;101382.52;110784;1253;22054;-80
2022/01/16 00:42:17;;;;;;;53.30;32.90;;;;;;;0.98;71.77;101379.29;110801;1253;21975;-78
2022/01/16 00:44:46;;;;;;;56.50;29.40;;;;;;;1.00;71.94;101388.40;110287;1254;21966;-78
2022/01/16 00:47:17;;;;;;;56.20;30.20;;;;;;;1.02;71.94;101400.23;110704;1253;22043;-78
2022/01/16 00:49:46;;;;;;;61.40;33.90;;;;;;;1.02;71.77;101415.73;110762;1253;22994;-78
2022/01/16 00:52:16;;;;;;;57.60;31.00;;;;;;;1.00;71.83;101442.67;110784;1252;23602;-78
2022/01/16 00:54:47;;;;;;;64.30;33.10;;;;;;;1.01;71.92;101432.91;110505;1253;22446;-78
2022/01/16 00:57:17;;;;;;;40.90;23.20;;;;;;;1.00;71.85;101439.20;110810;1252;23567;-78
2022/01/16 00:59:48;;;;;;;42.90;22.30;;;;;;;0.98;71.67;101438.30;110783;1252;23066;-78
2022/01/16 01:02:17;;;;;;;53.40;21.30;;;;;;;0.94;71.75;101421.30;110535;1253;22245;-77
2022/01/16 01:04:48;;;;;;;45.60;23.30;;;;;;;0.95;71.81;101421.77;110425;1253;22981;-78
2022/01/16 01:07:18;;;;;;;;;;;;;;;0.96;71.90;101426.94;110777;1253;24122;-78
2022/01/16 01:09:50;;;;;;;38.90;20.60;;;;;;;0.93;72.06;101436.11;110229;1260;23654;-78
2022/01/16 01:12:30;;;;;;;41.70;20.10;;;;;;;0.93;72.04;101413.03;109594;1264;21980;-78
2022/01/16 01:15:09;;;;;;;40.00;20.80;;;;;;;0.95;72.01;101411.17;109483;1264;22674;-78
2022/01/16 01:17:47;;;;;;;48.60;21.40;;;;;;;0.99;71.90;101430.27;109227;1264;23690;-77
2022/01/16 01:20:19;;;;;;;44.00;21.00;;;;;;;1.02;71.93;101432.17;109515;1264;23087;-79
2022/01/16 01:22:52;;;;;;;40.90;20.50;;;;;;;1.04;71.77;101412.45;109577;1265;21997;-79
2022/01/16 01:25:22;;;;;;;36.80;19.60;;;;;;;1.06;71.60;101405.07;109560;1264;21997;-80
2022/01/16 01:27:51;;;;;;;39.80;19.70;;;;;;;1.07;71.52;101412.14;109859;1259;21985;-80
2022/01/16 01:30:24;;;;;;;39.60;20.30;;;;;;;1.08;71.49;101409.27;110547;1253;23691;-80
2022/01/16 01:32:55;;;;;;;31.90;18.70;;;;;;;1.11;71.41;101414.67;110768;1253;21969;-81
2022/01/16 01:35:25;;;;;;;43.80;20.40;;;;;;;1.13;71.30;101426.70;110629;1253;22181;-81
2022/01/16 01:37:56;;;;;;;32.10;18.10;;;;;;;1.15;71.30;101414.80;110619;1253;22762;-78
2022/01/16 01:40:26;;;;;;;35.30;19.10;;;;;;;1.19;71.41;101409.77;110443;1253;22180;-79
2022/01/16 01:51:26;;;;;;;47.20;22.80;;;;;;;1.01;70.88;101279.05;110637;1253;21972;-79
2022/01/16 01:54:01;;;;;;;50.20;23.90;;;;;;;0.97;70.85;101270.95;109886;1261;22116;-79
2022/01/16 01:56:31;;;;;;;60.60;29.50;;;;;;;0.99;70.97;101253.86;109845;1260;21967;-80
2022/01/16 01:59:01;;;;;;;52.10;27.20;;;;;;;0.99;71.04;101284.52;110108;1261;21977;-78
2022/01/16 02:01:33;;;;;;;43.10;21.80;;;;;;;1.00;70.97;101307.54;109427;1265;23669;-79
2022/01/16 02:04:16;;;;;;;39.60;20.30;;;;;;;1.02;70.98;101317.83;109340;1266;22000;-79
2022/01/16 02:06:54;;;;;;;42.10;20.80;;;;;;;1.05;71.08;101328.98;109676;1264;21978;-79
2022/01/16 02:09:26;;;;;;;37.30;19.40;;;;;;;1.04;70.91;101317.03;109323;1267;22467;-78
2022/01/16 02:12:05;;;;;;;49.00;21.40;;;;;;;1.05;70.94;101313.71;109165;1265;23627;-79
2022/01/16 02:15:07;;;;;;;44.80;20.50;;;;;;;1.06;70.99;101311.74;109523;1265;21985;-78
2022/01/16 02:31:41;;;;;;;35.60;15.90;;;;;;;0.97;71.22;101315.86;110185;1253;21984;-79
2022/01/16 02:34:39;;;;;;;44.40;17.40;;;;;;;0.97;71.09;101318.48;110649;1253;22996;-79
2022/01/16 02:37:12;;;;;;;37.40;17.60;;;;;;;0.94;71.01;101325.59;110535;1253;21967;-80
2022/01/16 02:39:51;;;;;;;31.70;16.20;;;;;;;0.92;70.89;101319.27;110695;1253;22427;-79
2022/01/16 02:42:26;;;;;;;37.50;15.20;;;;;;;0.93;70.91;101314.50;110644;1253;21968;-80
2022/01/16 02:45:03;;;;;;;31.90;15.60;;;;;;;0.98;70.95;101314.09;110562;1253;22983;-79
2022/01/16 02:47:33;;;;;;;29.60;13.90;;;;;;;1.02;70.91;101316.31;110708;1253;21930;-80
2022/01/16 02:50:23;;;;;;;32.90;13.60;;;;;;;1.04;70.80;101314.27;110816;1253;21976;-79
2022/01/16 02:52:52;;;;;;;37.50;14.40;;;;;;;1.06;70.75;101317.45;110497;1253;21965;-80
2022/01/16 02:55:22;;;;;;;31.20;12.90;;;;;;;1.08;70.50;101301.72;110791;1253;21974;-80
2022/01/16 02:57:55;;;;;;;39.10;13.50;;;;;;;1.12;70.65;101294.79;110749;1253;22102;-79
2022/01/16 03:00:25;;;;;;;29.10;12.90;;;;;;;1.15;70.63;101293.89;110806;1253;21973;-80
2022/01/16 03:02:54;;;;;;;26.90;11.30;;;;;;;1.17;70.43;101297.05;110697;1253;22271;-79
2022/01/16 03:05:25;;;;;;;36.50;12.50;;;;;;;1.16;70.30;101297.48;110676;1254;22529;-80
2022/01/16 03:07:54;;;;;;;22.20;12.00;;;;;;;1.14;70.28;101297.09;110020;1259;22016;-79
2022/01/16 03:13:33;;;;;;;37.80;12.50;;;;;;;1.06;70.09;101308.92;109052;1270;23632;-79
2022/01/16 03:16:04;;;;;;;24.70;11.80;;;;;;;1.06;70.20;101309.65;108773;1273;23082;-79
2022/01/16 03:24:21;;;;;;;39.00;12.90;;;;;;;1.10;70.19;101276.13;108990;1270;23896;-79
2022/01/16 03:27:12;;;;;;;31.10;12.60;;;;;;;1.13;70.12;101269.19;109242;1267;24947;-79
2022/01/16 03:29:54;;;;;;;34.50;14.10;;;;;;;1.16;70.12;101264.33;109332;1265;23764;-79
2022/01/16 03:32:24;;;;;;;30.20;12.30;;;;;;;1.20;70.09;101262.94;109599;1265;23639;-79
2022/01/16 03:34:53;;;;;;;34.00;13.40;;;;;;;1.23;70.01;101260.86;109113;1268;23099;-80
2022/01/16 03:37:22;;;;;;;27.30;11.70;;;;;;;1.26;69.97;101250.98;109119;1267;22257;-80
2022/01/16 03:39:51;;;;;;;27.90;11.50;;;;;;;1.29;69.90;101249.93;108701;1276;22076;-80
2022/01/16 03:42:26;;;;;;;29.10;13.00;;;;;;;1.31;69.79;101244.77;108721;1273;21992;-79
2022/01/16 03:45:05;;;;;;;23.80;11.70;;;;;;;1.31;69.82;101242.84;108970;1273;23696;-79
2022/01/16 03:47:37;;;;;;;28.80;10.40;;;;;;;1.30;69.68;101236.83;109115;1270;23817;-79
2022/01/16 03:50:12;;;;;;;29.10;12.80;;;;;;;1.28;69.62;101228.79;109156;1267;22120;-79
2022/01/16 03:52:45;;;;;;;32.50;13.50;;;;;;;1.26;69.61;101221.82;109626;1259;21987;-79
2022/01/16 03:55:14;;;;;;;32.40;12.30;;;;;;;1.24;69.58;101217.02;110198;1259;23723;-78
2022/01/16 03:57:48;;;;;;;30.10;13.30;;;;;;;1.25;69.57;101219.77;110290;1253;21967;-79
2022/01/16 04:00:17;;;;;;;36.20;13.70;;;;;;;1.26;69.61;101212.77;110764;1254;21966;-79
2022/01/16 04:02:49;;;;;;;32.70;14.70;;;;;;;1.28;69.68;101202.41;110703;1253;23049;-79
2022/01/16 04:05:18;;;;;;;25.20;12.10;;;;;;;1.28;69.51;101194.06;110715;1255;21966;-80
2022/01/16 04:07:48;;;;;;;36.50;14.40;;;;;;;1.27;69.39;101183.36;110063;1259;21987;-80
2022/01/16 04:10:22;;;;;;;34.40;16.30;;;;;;;1.28;69.52;101184.20;109362;1267;21995;-80
2022/01/16 04:12:54;;;;;;;33.40;16.50;;;;;;;1.28;69.38;101183.69;109233;1267;22040;-80
2022/01/16 04:15:32;;;;;;;40.10;16.30;;;;;;;1.27;69.39;101181.84;109367;1267;24321;-80
2022/01/16 04:18:06;;;;;;;32.70;15.00;;;;;;;1.25;69.31;101181.22;109129;1270;23774;-81
2022/01/16 04:20:35;;;;;;;35.80;15.00;;;;;;;1.24;69.24;101185.48;108800;1275;22507;-81
2022/01/16 04:23:06;;;;;;;29.70;15.10;;;;;;;1.23;69.38;101172.84;108540;1279;22466;-81
2022/01/16 04:25:39;;;;;;;34.70;15.30;;;;;;;1.23;69.41;101166.08;108695;1275;23069;-81
2022/01/16 04:28:12;;;;;;;47.10;18.40;;;;;;;1.24;69.50;101157.21;108865;1267;22138;-81
2022/01/16 04:30:41;;;;;;;35.90;19.00;;;;;;;1.27;69.63;101152.36;109160;1270;23315;-81
2022/01/16 04:33:10;;;;;;;96.10;56.90;;;;;;;1.29;69.68;101149.11;109195;1267;23041;-80
2022/01/16 04:35:39;;;;;;;60.60;33.00;;;;;;;1.29;69.60;101145.97;108860;1270;22984;-79
2022/01/16 04:38:09;;;;;;;45.60;32.60;;;;;;;1.31;69.63;101140.65;109233;1265;22026;-79
2022/01/16 04:40:45;;;;;;;32.40;20.10;;;;;;;1.32;69.57;101141.80;109432;1261;21984;-78
2022/01/16 04:46:02;;;;;;;39.80;24.00;;;;;;;1.28;69.55;101137.17;110423;1260;22786;-80
2022/01/16 04:48:31;;;;;;;52.10;28.00;;;;;;;1.30;69.65;101135.16;110272;1260;22002;-80
2022/01/16 04:51:00;;;;;;;42.60;23.70;;;;;;;1.31;69.72;101134.36;110274;1260;23733;-80
2022/01/16 04:53:33;;;;;;;46.20;24.00;;;;;;;1.34;69.68;101131.80;110475;1254;22938;-81
2022/01/16 04:56:03;;;;;;;52.30;25.90;;;;;;;1.35;69.63;101131.71;110865;1254;23712;-80
2022/01/16 04:58:38;;;;;;;57.10;28.60;;;;;;;1.35;69.60;101130.84;109689;1260;21990;-82
2022/01/16 05:01:08;;;;;;;47.80;26.50;;;;;;;1.36;69.64;101133.58;109899;1260;21968;-80
2022/01/16 05:03:46;;;;;;;52.40;25.70;;;;;;;1.35;69.46;101129.98;109686;1262;21990;-81
2022/01/16 05:06:16;;;;;;;54.30;29.90;;;;;;;1.29;69.29;101128.27;109660;1261;22005;-80
2022/01/16 05:08:48;;;;;;;78.10;44.80;;;;;;;1.25;69.36;101119.80;109233;1267;21981;-80
2022/01/16 05:11:24;;;;;;;58.50;32.20;;;;;;;1.22;69.31;101110.11;109307;1267;21992;-80
2022/01/16 05:16:38;;;;;;;47.60;29.90;;;;;;;1.13;69.44;101099.32;109316;1265;22937;-80
2022/01/16 05:19:08;;;;;;;53.20;27.80;;;;;;;1.10;69.66;101101.23;109640;1264;23140;-80
2022/01/16 05:21:40;;;;;;;49.10;28.30;;;;;;;1.10;69.77;101095.86;110072;1263;21977;-80
2022/01/16 05:24:11;;;;;;;45.90;26.80;;;;;;;1.09;69.73;101093.49;109656;1264;23726;-80
2022/01/16 05:26:45;;;;;;;45.10;27.40;;;;;;;1.06;69.68;101090.55;109848;1259;23722;-79
2022/01/16 05:29:16;;;;;;;45.30;26.30;;;;;;;0.99;69.57;101093.02;110032;1259;21973;-79
2022/01/16 05:31:45;;;;;;;41.60;24.40;;;;;;;0.93;69.79;101085.73;109985;1259;21977;-79
2022/01/16 05:34:23;;;;;;;52.00;26.70;;;;;;;0.92;69.97;101082.33;110249;1253;23785;-79
2022/01/16 05:36:53;;;;;;;49.30;26.20;;;;;;;0.92;70.10;101078.15;110565;1254;24345;-78
2022/01/16 05:39:22;;;;;;;42.80;27.40;;;;;;;0.90;70.03;101074.13;110419;1253;22408;-79
2022/01/16 05:41:51;;;;;;;40.70;27.70;;;;;;;0.84;70.01;101068.74;110839;1254;22297;-79
2022/01/16 05:44:21;;;;;;;50.50;30.70;;;;;;;0.77;70.01;101066.23;110808;1253;21955;-79
2022/01/16 05:46:50;;;;;;;49.70;31.50;;;;;;;0.72;70.10;101065.12;110155;1260;22992;-80
2022/01/16 05:49:19;;;;;;;52.20;34.90;;;;;;;0.63;70.08;101066.28;110496;1260;23178;-79
2022/01/16 05:51:53;;;;;;;61.30;38.50;;;;;;;0.57;70.32;101056.58;109779;1264;23716;-79
2022/01/16 05:54:22;;;;;;;51.90;40.10;;;;;;;0.54;70.65;101054.35;109641;1265;21992;-80
2022/01/16 05:56:54;;;;;;;62.50;42.60;;;;;;;0.50;70.61;101052.33;109567;1265;23610;-80
2022/01/16 05:59:29;;;;;;;63.70;44.40;;;;;;;0.40;70.61;101050.06;109641;1265;22994;-81
2022/01/16 06:01:59;;;;;;;68.50;48.20;;;;;;;0.36;70.92;101052.72;109614;1265;23615;-80
2022/01/16 06:04:29;;;;;;;66.30;51.00;;;;;;;0.33;71.06;101048.23;109772;1260;22187;-80
2022/01/16 06:06:59;;;;;;;68.20;54.80;;;;;;;0.30;71.16;101047.34;110161;1259;156518;-80
2022/01/16 06:09:28;;;;;;;70.10;53.30;;;;;;;0.28;71.29;101045.88;110261;1253;21970;-80
2022/01/16 06:11:58;;;;;;;71.00;56.40;;;;;;;0.26;71.39;101047.58;110735;1256;21975;-80
2022/01/16 06:14:27;;;;;;;69.90;54.40;;;;;;;0.17;71.24;101042.33;110518;1256;22450;-80
2022/01/16 06:16:59;;;;;;;75.30;59.30;;;;;;;0.05;71.24;101036.95;110256;1256;23809;-79
2022/01/16 06:19:31;;;;;;;84.20;63.20;;;;;;;-0.04;71.58;101035.18;110008;1259;22280;-79
2022/01/16 06:22:00;;;;;;;81.10;58.50;;;;;;;-0.08;71.92;101031.23;110174;1260;24301;-79
2022/01/16 06:24:29;;;;;;;67.90;53.70;;;;;;;-0.10;72.08;101029.92;110033;1259;22511;-80
2022/01/16 06:26:59;;;;;;;73.60;53.30;;;;;;;-0.12;72.24;101033.21;110198;1259;23635;-80
2022/01/16 06:29:28;;;;;;;78.70;50.00;;;;;;;-0.15;72.36;101025.05;110365;1260;22976;-80
2022/01/16 06:31:57;;;;;;;71.30;49.60;;;;;;;-0.19;72.40;101019.73;110173;1259;21982;-79
2022/01/16 06:34:29;;;;;;;71.80;48.70;;;;;;;-0.23;72.72;101019.44;110283;1260;21987;-78
2022/01/16 06:36:58;;;;;;;72.20;49.40;;;;;;;-0.31;72.80;101020.71;110075;1254;23078;-79
2022/01/16 06:39:30;;;;;;;86.40;61.50;;;;;;;-0.39;72.98;101015.05;110503;1253;23742;-79
2022/01/16 06:41:59;;;;;;;93.20;64.70;;;;;;;-0.46;73.05;101008.54;110166;1259;22041;-79
2022/01/16 06:44:44;;;;;;;113.10;70.70;;;;;;;-0.57;73.10;101009.45;110065;1258;23701;-78
2022/01/16 06:47:15;;;;;;;112.60;77.40;;;;;;;-0.64;73.40;101010.86;110370;1259;21984;-80
2022/01/16 06:49:45;;;;;;;111.40;73.40;;;;;;;-0.65;73.69;101008.45;110080;1259;22816;-80
2022/01/16 06:52:14;;;;;;;113.30;74.50;;;;;;;-0.68;73.91;101005.67;110102;1262;21946;-80
2022/01/16 06:54:43;;;;;;;110.00;71.10;;;;;;;-0.69;74.13;101008.87;110317;1258;21981;-79
2022/01/16 06:57:19;;;;;;;112.80;75.70;;;;;;;-0.68;74.33;101010.38;110351;1260;23451;-79
2022/01/16 06:59:57;;;;;;;102.20;66.60;;;;;;;-0.69;74.51;101010.40;110294;1255;23681;-78
2022/01/16 07:02:27;;;;;;;96.60;65.00;;;;;;;-0.71;74.66;101007.05;110748;1255;22244;-79
2022/01/16 07:05:05;;;;;;;106.50;69.20;;;;;;;-0.76;74.57;101013.52;109904;1262;23099;-80
2022/01/16 07:07:34;;;;;;;106.80;68.00;;;;;;;-0.79;74.82;101015.44;109882;1264;21971;-80
2022/01/16 07:10:07;;;;;;;83.20;57.00;;;;;;;-0.79;75.14;101013.89;109652;1265;21993;-80
2022/01/16 07:12:35;;;;;;;;;;;;;;;-0.81;75.21;101007.23;109633;1265;21964;-80
2022/01/16 07:15:06;;;;;;;85.00;55.00;;;;;;;-0.94;75.28;100997.51;109601;1265;21974;-78
2022/01/16 07:17:35;;;;;;;92.80;56.90;;;;;;;-1.00;75.58;100992.79;109663;1265;23692;-79
2022/01/16 07:20:04;;;;;;;81.10;53.20;;;;;;;-1.00;75.76;100990.05;109482;1264;21980;-79
2022/01/16 07:22:34;;;;;;;82.20;54.00;;;;;;;-1.00;75.89;100990.23;109470;1265;22041;-79
2022/01/16 07:25:04;;;;;;;84.00;55.10;;;;;;;-1.02;75.90;100992.38;109819;1259;21999;-80
2022/01/16 07:27:33;;;;;;;89.80;56.70;;;;;;;-1.04;75.94;100993.51;110396;1260;22483;-80
2022/01/16 07:30:04;;;;;;;86.50;56.30;;;;;;;-1.03;76.23;100992.44;110165;1261;21987;-80
2022/01/16 07:32:34;;;;;;;91.30;61.50;;;;;;;-0.97;76.50;100993.85;110014;1260;22570;-80
2022/01/16 07:35:06;;;;;;;84.30;61.50;;;;;;;-0.95;76.47;100996.68;109440;1267;21978;-81
2022/01/16 07:38:01;;;;;;;83.90;61.50;;;;;;;-0.98;76.44;100995.80;109372;1267;22011;-80
2022/01/16 07:40:35;;;;;;;85.60;56.50;;;;;;;-1.00;76.57;100989.50;109576;1261;22038;-80
2022/01/16 07:43:04;;;;;;;84.90;54.80;;;;;;;-0.99;76.78;100987.90;109089;1270;23022;-80
2022/01/16 07:45:37;;;;;;;91.00;62.50;;;;;;;-0.97;76.89;100993.69;109128;1267;23634;-80
2022/01/16 07:48:07;;;;;;;131.40;85.80;;;;;;;-0.96;76.94;100998.67;109254;1267;23063;-78
2022/01/16 07:50:38;;;;;;;118.10;78.00;;;;;;;-0.96;77.06;101006.92;109172;1270;22250;-79
2022/01/16 07:53:08;;;;;;;107.90;68.60;;;;;;;-0.94;77.14;101010.14;109457;1263;21977;-80
2022/01/16 07:55:37;;;;;;;100.30;64.20;;;;;;;-0.92;77.18;101007.98;109833;1263;21990;-79
2022/01/16 07:58:08;;;;;;;86.10;56.60;;;;;;;-0.91;77.28;101007.77;109689;1264;21986;-83
2022/01/16 08:00:37;;;;;;;65.20;46.00;;;;;;;-0.87;77.52;101004.77;110255;1254;21964;-79
2022/01/16 08:03:09;;;;;;;71.30;50.50;;;;;;;-0.83;77.57;100999.06;110816;1254;24935;-81
2022/01/16 08:05:42;;;;;;;72.80;53.00;;;;;;;-0.83;77.54;101000.39;110419;1255;22647;-80
2022/01/16 08:08:13;;;;;;;77.30;52.10;;;;;;;-0.85;77.39;101003.61;110883;1254;21961;-81
2022/01/16 08:10:47;;;;;;;88.20;55.30;;;;;;;-0.84;77.66;100999.60;110155;1260;22009;-79
2022/01/16 08:13:21;;;;;;;87.50;54.30;;;;;;;-0.80;77.87;101000.79;110094;1260;22214;-81
2022/01/16 08:15:50;;;;;;;94.10;62.70;;;;;;;-0.76;77.85;100993.30;110144;1259;22317;-79
2022/01/16 08:18:19;;;;;;;127.90;95.00;;;;;;;-0.74;77.67;100983.70;110144;1260;22856;-80
2022/01/16 08:21:00;;;;;;;109.90;73.90;;;;;;;-0.74;77.72;100977.62;109400;1264;22112;-80
2022/01/16 08:23:54;;;;;;;98.50;62.60;;;;;;;-0.79;77.56;100970.44;109092;1273;23069;-84
2022/01/16 08:26:28;;;;;;;87.10;58.20;;;;;;;-0.83;77.64;100966.86;108900;1273;22967;-78
2022/01/16 08:28:57;;;;;;;98.30;62.60;;;;;;;-0.84;77.68;100976.41;109038;1270;23022;-82
2022/01/16 08:31:33;;;;;;;98.70;66.10;;;;;;;-0.81;77.80;100981.31;109116;1273;21987;-81
2022/01/16 08:34:02;;;;;;;108.60;68.30;;;;;;;-0.76;78.02;100977.91;109156;1270;22103;-82
2022/01/16 08:36:36;;;;;;;108.10;71.90;;;;;;;-0.69;78.10;100973.55;109134;1270;21999;-81
2022/01/16 08:39:06;;;;;;;107.80;73.10;;;;;;;-0.64;78.15;100969.31;109110;1270;23608;-80
2022/01/16 08:41:39;;;;;;;109.40;76.20;;;;;;;-0.59;78.11;100961.63;109375;1265;22192;-80
2022/01/16 08:44:12;;;;;;;102.10;73.20;;;;;;;-0.59;78.00;100962.48;109544;1265;21998;-82
2022/01/16 08:46:45;;;;;;;94.20;65.20;;;;;;;-0.54;78.21;100964.15;109218;1270;23691;-82
2022/01/16 08:49:21;;;;;;;92.70;65.60;;;;;;;-0.53;77.91;100955.44;109165;1267;21994;-81
2022/01/16 08:52:06;;;;;;;97.30;68.10;;;;;;;-0.52;78.03;100953.27;109143;1273;21990;-82
2022/01/16 08:54:38;;;;;;;92.40;66.70;;;;;;;-0.51;78.05;100949.60;108750;1279;22042;-82
2022/01/16 08:57:12;;;;;;;91.30;63.00;;;;;;;-0.47;78.07;100949.91;108843;1274;21990;-81
2022/01/16 08:59:44;;;;;;;106.30;73.30;;;;;;;-0.40;78.23;100944.70;109028;1270;22790;-83
2022/01/16 09:02:14;;;;;;;81.50;61.00;;;;;;;-0.37;78.09;100938.98;109147;1272;24339;-83
2022/01/16 09:04:44;;;;;;;90.90;63.80;;;;;;;-0.37;77.82;100939.88;109068;1267;23001;-82
2022/01/16 09:07:16;;;;;;;95.30;66.30;;;;;;;-0.38;77.67;100939.59;108904;1273;23416;-83
2022/01/16 09:09:45;;;;;;;129.10;83.90;;;;;;;-0.39;77.64;100933.05;108962;1267;24601;-81
2022/01/16 09:12:15;;;;;;;110.60;80.40;;;;;;;-0.38;77.79;100931.77;109187;1264;22011;-82
2022/01/16 09:14:46;;;;;;;101.90;68.10;;;;;;;-0.35;77.79;100930.77;109552;1266;22016;-81
2022/01/16 09:17:15;;;;;;;79.90;56.50;;;;;;;-0.39;77.63;100930.97;109587;1266;22004;-82
2022/01/16 09:19:46;;;;;;;83.40;59.00;;;;;;;-0.38;77.74;100929.39;109583;1264;21945;-83
2022/01/16 09:22:19;;;;;;;84.90;59.50;;;;;;;-0.38;77.52;100931.94;109583;1264;21992;-81
2022/01/16 09:24:48;;;;;;;103.10;68.60;;;;;;;-0.40;77.53;100927.39;109677;1260;22166;-83
2022/01/16 09:27:18;;;;;;;91.60;64.20;;;;;;;-0.35;77.70;100923.14;110349;1257;23758;-82
2022/01/16 09:29:50;;;;;;;91.50;66.60;;;;;;;-0.31;77.77;100921.54;110636;1257;21969;-84
2022/01/16 09:32:19;;;;;;;82.50;59.10;;;;;;;-0.23;78.08;100924.05;110608;1254;22953;-84
2022/01/16 09:34:58;;;;;;;115.00;74.80;;;;;;;-0.18;77.87;100923.55;110085;1262;22014;-84
2022/01/16 09:37:30;;;;;;;82.70;60.30;;;;;;;-0.13;77.87;100917.60;110189;1259;23039;-84
2022/01/16 09:40:04;;;;;;;90.80;69.50;;;;;;;-0.12;77.50;100912.00;110100;1261;21977;-82
2022/01/16 09:42:35;;;;;;;246.30;120.90;;;;;;;-0.15;77.42;100907.83;110040;1260;22010;-84
2022/01/16 09:45:11;;;;;;;110.10;80.00;;;;;;;-0.10;77.72;100907.20;110216;1260;22779;-84
2022/01/16 09:47:44;;;;;;;87.60;64.20;;;;;;;0.02;77.91;100902.06;110281;1263;21994;-81
2022/01/16 09:50:26;;;;;;;91.70;67.50;;;;;;;0.10;77.66;100902.46;110235;1261;23608;-81
2022/01/16 09:53:04;;;;;;;85.60;62.40;;;;;;;0.12;77.39;100901.83;110348;1253;24326;-82
2022/01/16 09:55:34;;;;;;;82.80;62.70;;;;;;;0.10;77.08;100894.85;110765;1254;21988;-82
2022/01/16 09:58:03;;;;;;;67.40;51.30;;;;;;;0.11;77.00;100895.15;110782;1257;21966;-82
2022/01/16 10:00:33;;;;;;;79.60;58.10;;;;;;;0.00;76.39;100895.39;110457;1260;22015;-82
2022/01/16 10:03:03;;;;;;;92.90;66.30;;;;;;;-0.07;76.56;100886.27;110317;1260;21977;-83
2022/01/16 10:05:37;;;;;;;90.10;66.50;;;;;;;-0.04;76.88;100877.94;110141;1260;21933;-82
2022/01/16 10:08:25;;;;;;;108.30;81.00;;;;;;;0.02;77.02;100867.08;109661;1267;22022;-82
2022/01/16 10:10:54;;;;;;;94.00;69.90;;;;;;;0.05;76.93;100856.50;109782;1267;22135;-81
2022/01/16 10:13:41;;;;;;;92.00;69.70;;;;;;;0.08;77.01;100852.67;109635;1267;23721;-83
2022/01/16 10:16:24;;;;;;;98.10;71.40;;;;;;;0.11;76.95;100851.30;109563;1266;21995;-81
2022/01/16 10:18:58;;;;;;;100.30;74.50;;;;;;;0.14;76.99;100856.70;109699;1260;22972;-80
2022/01/16 10:21:35;;;;;;;102.20;77.10;;;;;;;0.26;77.46;100858.20;110180;1262;21982;-82
2022/01/16 10:24:47;;;;;;;91.70;73.30;;;;;;;0.46;77.85;100855.48;110049;1260;21977;-82
2022/01/16 10:27:38;;;;;;;86.70;67.60;;;;;;;0.66;77.68;100848.39;110843;1254;21988;-79
2022/01/16 10:30:12;;;;;;;102.40;71.20;;;;;;;0.73;77.07;100849.20;110594;1257;21962;-82
2022/01/16 10:32:45;;;;;;;101.70;83.80;;;;;;;0.78;76.86;100842.48;110466;1254;21992;-81
2022/01/16 10:35:24;;;;;;;84.20;67.20;;;;;;;0.91;77.15;100837.88;110773;1254;21987;-80
2022/01/16 10:37:59;;;;;;;109.00;82.40;;;;;;;1.05;77.09;100828.66;110309;1260;21991;-81
2022/01/16 10:40:38;;;;;;;83.20;62.30;;;;;;;1.15;76.54;100821.63;109999;1261;22131;-81
2022/01/16 10:43:13;;;;;;;74.50;58.10;;;;;;;1.22;76.28;100821.70;109497;1267;21991;-81
2022/01/16 10:45:44;;;;;;;75.70;62.10;;;;;;;1.40;76.88;100819.95;109153;1270;21987;-81
2022/01/16 10:48:14;;;;;;;80.30;64.00;;;;;;;1.62;76.91;100820.59;109210;1270;21995;-81
2022/01/16 10:50:47;;;;;;;73.40;57.80;;;;;;;1.78;76.26;100816.06;109103;1271;22073;-81
2022/01/16 10:53:28;;;;;;;89.30;63.70;;;;;;;1.84;75.21;100812.74;109128;1270;22012;-81
2022/01/16 10:56:03;;;;;;;94.90;68.60;;;;;;;1.79;74.41;100811.14;109247;1267;22010;-81
2022/01/16 10:58:42;;;;;;;188.20;111.40;;;;;;;1.82;74.65;100805.89;109505;1265;22009;-79
2022/01/16 11:01:19;;;;;;;88.00;68.90;;;;;;;1.97;74.75;100800.78;109667;1261;23173;-80
2022/01/16 11:03:58;;;;;;;82.00;65.70;;;;;;;2.01;73.87;100792.66;110210;1254;23603;-80
2022/01/16 11:06:28;;;;;;;87.30;71.30;;;;;;;2.10;73.97;100790.16;110705;1254;21993;-80
2022/01/16 11:09:03;;;;;;;84.40;67.90;;;;;;;2.36;75.05;100784.41;110406;1254;22458;-79
2022/01/16 11:11:33;;;;;;;80.10;67.30;;;;;;;2.67;75.46;100778.46;110509;1254;22449;-80
2022/01/16 11:14:06;;;;;;;87.60;71.80;;;;;;;2.91;75.31;100776.98;109873;1260;21995;-80
2022/01/16 11:16:36;;;;;;;86.70;67.00;;;;;;;3.00;74.04;100768.34;110090;1260;22749;-80
2022/01/16 11:19:21;;;;;;;92.60;71.40;;;;;;;3.11;74.05;100765.13;109480;1267;23784;-79
2022/01/16 11:21:56;;;;;;;84.40;65.70;;;;;;;3.21;73.11;100757.76;109536;1267;21995;-81
2022/01/16 11:24:35;;;;;;;89.50;68.90;;;;;;;3.18;71.66;100750.81;108847;1273;21974;-81
2022/01/16 11:27:08;;;;;;;93.50;72.10;;;;;;;3.16;71.14;100747.70;108639;1276;22251;-81
2022/01/16 11:29:37;;;;;;;103.30;79.10;;;;;;;3.13;70.51;100741.08;108723;1279;22124;-81
2022/01/16 11:32:13;;;;;;;81.60;61.40;;;;;;;3.16;70.55;100736.71;108458;1280;22035;-81
2022/01/16 11:34:48;;;;;;;76.70;58.90;;;;;;;3.12;69.73;100737.36;108684;1277;22197;-81
2022/01/16 11:37:18;;;;;;;81.50;61.60;;;;;;;2.93;68.93;100735.73;108788;1273;23657;-83
2022/01/16 11:39:47;;;;;;;84.90;68.00;;;;;;;2.71;68.61;100732.76;108982;1270;24409;-83
2022/01/16 11:42:26;;;;;;;77.10;62.20;;;;;;;2.57;68.87;100731.19;108903;1266;23665;-83
2022/01/16 11:44:58;;;;;;;99.80;69.50;;;;;;;2.47;69.28;100724.88;109406;1260;22559;-82
2022/01/16 11:47:30;;;;;;;99.20;74.50;;;;;;;2.41;69.39;100724.62;109891;1263;22008;-81
2022/01/16 11:50:10;;;;;;;101.40;76.70;;;;;;;2.36;69.81;100722.67;110107;1254;22071;-83
2022/01/16 11:52:41;;;;;;;98.20;76.40;;;;;;;2.41;70.20;100721.68;110705;1257;21967;-82
2022/01/16 11:55:13;;;;;;;87.10;68.20;;;;;;;2.48;70.41;100718.58;109884;1261;22143;-82
2022/01/16 11:57:56;;;;;;;92.20;69.60;;;;;;;2.54;70.29;100717.13;109903;1263;24291;-82
2022/01/16 12:00:48;;;;;;;104.40;76.80;;;;;;;2.52;69.98;100713.05;109902;1260;21992;-82
2022/01/16 12:03:43;;;;;;;91.90;68.30;;;;;;;2.49;69.77;100707.57;110261;1260;21950;-82
2022/01/16 12:06:37;;;;;;;85.50;66.00;;;;;;;2.44;69.76;100700.63;109253;1270;22328;-82
2022/01/16 12:09:38;;;;;;;95.10;71.90;;;;;;;2.34;69.60;100701.25;109216;1267;22000;-83
2022/01/16 12:12:36;;;;;;;89.90;66.40;;;;;;;2.26;69.72;100698.02;108905;1273;22064;-81
2022/01/16 12:15:21;;;;;;;84.10;65.50;;;;;;;2.24;70.12;100689.48;108959;1273;23693;-82